Burley Municipal Airport
KBYI : now visible

Airfield :











YOU CAN JOIN US ON...

 
LOGIN :

Register | Disclaimer

   EN    FR    IT 

 









Legend :    VFR   Marginal VFR   IFR   Intensive IFR   Very Intensive IFR
Visi :
Ceiling :
>= 8 km
>= 3000ft
5 to 8 km
1000 to 3000 ft
1500m to 5 km
500 to 1000 ft
800 to 1500m
200 to 500 ft
< 800m
< 200 ft
Symbols :   Thunderstorms  Fog  Heavy snow  Heavy precipitations  Wind > 20 kt






- Airport Elevation : 4150 ft


KBYI - Burley Municipal

CURRENT METAR :
  • 190653Z AUTO 20003KT 10SM CLR 08/03 A3005 RMK AO2 SLP159 T00780028 401890011

EXPIRED METARs :
  • 190553Z AUTO 16003KT 10SM CLR 08/03 A3005 RMK AO2 SLP160 T00830033 10189 20083 51009
  • 190453Z AUTO 00000KT 10SM CLR 11/01 A3005 RMK AO2 SLP158 T01060011
  • 190353Z AUTO 16005KT 10SM CLR 12/02 A3004 RMK AO2 SLP153 T01220022
  • 190253Z AUTO 24006KT 10SM CLR 14/04 A3002 RMK AO2 SLP147 T01440039 53007

TAF KBYI
Valid from the 19 at 06:00 until the 20 at 06:00 UTC


190520Z 1906/2006 VRB06KT P6SM SKC
FM191200 07006KT P6SM SKC
FM192100 06007KT P6SM SCT150
KZLC FIR / North America



MET'MAP, your aeronautical weather chart ! - Copyright ORBIFLY December 2007 - Disclaimer

ORBIFLY MET'MAP TEAM :

Programming & Development : Alexandra Zaïnal
Original concept : Baudouin d'Aumeries
Technical & hardware support : Manuel Goepfert
Assistance : Marc-Olivier Méhu




SOURCES & CREDITS :

   NOAA       Earth
Advisory